Terminal Aerodrome Forecast
Issued by NWS

Home | Current Version | Previous Version | Text Only | Print | Product List | Glossary Off
Versions: 1 2 3 4 5 6 7 8 9 10 11 12 13 14 15

095
FTUS43 KMPX 221739
TAFRWF
TAF
KRWF 221739Z 2218/2318 31010KT P6SM SCT050 BKN120
     FM222200 32005KT P6SM VCTS BKN060CB
     FM230100 31007KT P6SM BKN070
     FM230900 34004KT 5SM -RA BR OVC015=

USA.gov is the U.S. government's official web portal to all federal, state and local government web resources and services.